Bend, OR

2:05 AM PST on December 19, 2014 (GMT -0800)
Roberts Field Airport | Change Station
CLOSE
Current Station
Airport
Location: Redmond,
Elevation: 3077 ft
Nearby Weather Stations

Elev 3077 ft 44.25 °N, 121.15 °W | Updated 9 minutes ago

Clear
Clear
43 °F
Feels Like 36 °F
N
13
Wind Variable Wind from South

Today
High -- | Low -- °F
--% Chance of Precip.
Yesterday
High -- | Low -- °F
Precip. -- in
7:36 AM 4:28 PM
Waning Crescent, 9% visible
Pressure 29.87 in
Visibility 10.0 miles
Clouds Few 5000 ft
Overcast 9000 ft
Windchill 36 °F
Dew Point 36 °F
Humidity 76%
Rainfall 0.00 in
Snow Depth Not available.
UV 0 out of 12
Pollen 1.10 out of 12
Air Quality Not available.
Flu Activity Not available.
METAR KRDM 190956Z AUTO 19011KT 10SM FEW050 OVC090 06/02 A2987 RMK AO2 RAB12E30 SLP115 P0000 T00610022

More Conditions Fewer Conditions

Pressure 29.87 in
Visibility 10.0 miles
Clouds Few 5000 ft
Overcast 9000 ft
Windchill 36 °F
Dew Point 36 °F
Humidity 76%
Rainfall 0.00 in
Snow Depth Not available.
UV 0 out of 12
Pollen 1.10 out of 12
Air Quality Not available.
Flu Activity Not available.
METAR KRDM 190956Z AUTO 19011KT 10SM FEW050 OVC090 06/02 A2987 RMK AO2 RAB12E30 SLP115 P0000 T00610022

More Conditions Fewer Conditions

10-Day Weather Forecast

Almanac

Astronomy

Dec. 19, 2014 Rise Set
Actual Time
Civil Twilight
Nautical Twilight
Astronomical Twilight
Moon
Length of Visible Light
Length of Day
Tomorrow will be .
, % of the Moon is Illuminated

Today's Extremes

State Highs State Lows

Community

WunderPhotos

Upload Photos

1,778,966 photos uploaded!

WunderBlogs® & News

Nearby

Air Quality

  Air Quality AQ Index Pollutant
Not available.

Snow Depth

Station Depth Elevation

Earthquake Activity

City Distance Mag. Time & Date
Minimum magnitude displayed is 2.5.

Coastal Water Temperatures

Place Temperature

Nearby Weather Stations